Time;durP1;ratioP1;P1;durP2;ratioP2;P2;SDS_P1;SDS_P2;PMS_P1;PMS_P2;Temp;Humidity;BMP_temperature;BMP_pressure;BME280_temperature;BME280_humidity;BME280_pressure;Samples;Min_cycle;Max_cycle;Signal;HPM_P1;HPM_P2
2022/10/20 00:01:08;;;;;;;1999.90;999.90;;;10.20;1.00;;;;;;4907453;29;20493;-82
2022/10/20 00:03:34;;;;;;;1999.90;999.90;;;10.70;1.00;;;;;;4892412;29;20047;-82
2022/10/20 00:06:11;;;;;;;1999.90;999.90;;;10.80;1.00;;;;;;4910696;29;20044;-82
2022/10/20 00:08:38;;;;;;;1999.90;999.90;;;10.20;1.00;;;;;;4914161;29;20048;-83
2022/10/20 00:11:05;;;;;;;1999.90;999.90;;;10.10;1.00;;;;;;4904568;29;20048;-83
2022/10/20 00:13:31;;;;;;;1999.90;999.90;;;10.00;1.00;;;;;;4901575;29;20123;-83
2022/10/20 00:15:58;;;;;;;1999.90;999.90;;;10.10;12.20;;;;;;4880181;29;20048;-82
2022/10/20 00:18:24;;;;;;;1999.90;999.90;;;10.10;66.60;;;;;;4881030;29;20378;-82
2022/10/20 00:20:51;;;;;;;1999.90;999.90;;;10.10;78.30;;;;;;4890301;29;20048;-82
2022/10/20 00:23:17;;;;;;;1999.90;999.90;;;10.10;84.10;;;;;;4909359;29;20052;-82
2022/10/20 00:25:43;;;;;;;1999.90;999.90;;;10.10;99.90;;;;;;4914248;29;20044;-82
2022/10/20 00:28:09;;;;;;;1999.90;999.90;;;10.90;99.90;;;;;;4895483;29;20525;-81
2022/10/20 00:30:35;;;;;;;1999.90;999.90;;;10.00;99.90;;;;;;4910098;29;20150;-83
2022/10/20 00:33:02;;;;;;;1999.90;999.90;;;10.00;99.90;;;;;;4909982;29;20052;-86
2022/10/20 00:35:29;;;;;;;1999.90;999.90;;;10.10;99.90;;;;;;4906290;29;20048;-84
2022/10/20 00:37:55;;;;;;;1999.90;999.90;;;10.10;99.90;;;;;;4910246;29;20048;-82
2022/10/20 00:40:21;;;;;;;1999.90;999.90;;;10.60;99.90;;;;;;4912223;29;20076;-82
2022/10/20 00:42:47;;;;;;;1999.90;999.90;;;10.10;99.90;;;;;;4912765;29;20055;-82
2022/10/20 00:45:16;;;;;;;1999.90;999.90;;;10.10;99.90;;;;;;4903630;29;20126;-82
2022/10/20 00:47:54;;;;;;;1999.90;999.90;;;10.10;99.90;;;;;;4894523;29;20489;-82
2022/10/20 00:50:28;;;;;;;1999.90;999.90;;;10.10;99.30;;;;;;4905797;29;20044;-87
2022/10/20 00:52:55;;;;;;;1999.90;999.90;;;10.10;85.80;;;;;;4888086;29;20052;-82
2022/10/20 00:55:27;;;;;;;1999.90;999.90;;;10.10;55.90;;;;;;4885002;29;20130;-83
2022/10/20 00:57:56;;;;;;;1999.90;999.90;;;10.10;82.10;;;;;;4915590;29;20572;-82
2022/10/20 01:00:22;;;;;;;1999.90;999.90;;;10.10;61.70;;;;;;4910483;29;20529;-83
2022/10/20 01:02:50;;;;;;;1999.90;999.90;;;10.00;67.80;;;;;;4911505;29;20549;-83
2022/10/20 01:05:16;;;;;;;1999.90;999.90;;;10.00;73.70;;;;;;4911427;29;20454;-83
2022/10/20 01:07:42;;;;;;;1999.90;999.90;;;10.50;79.20;;;;;;4912300;29;20052;-82
2022/10/20 01:10:08;;;;;;;1999.90;999.90;;;10.00;93.90;;;;;;4900558;29;20079;-82
2022/10/20 01:12:45;;;;;;;1999.90;999.90;;;10.00;98.60;;;;;;4916976;29;20095;-82
2022/10/20 01:15:13;;;;;;;1999.90;999.90;;;9.90;94.00;;;;;;4890156;29;20053;-83
2022/10/20 01:17:56;;;;;;;1999.90;999.90;;;9.90;99.90;;;;;;4907183;29;20052;-84
2022/10/20 01:20:42;;;;;;;1999.90;999.90;;;9.90;99.90;;;;;;4892158;29;20049;-83
2022/10/20 01:23:44;;;;;;;1999.90;999.90;;;9.80;99.90;;;;;;4915127;29;20429;-83
2022/10/20 01:26:37;;;;;;;1999.90;999.90;;;9.70;99.90;;;;;;4910926;29;20494;-80
2022/10/20 01:29:19;;;;;;;1999.90;999.90;;;9.60;99.90;;;;;;4885620;29;20171;-83
2022/10/20 01:32:08;;;;;;;1999.90;999.90;;;9.60;99.90;;;;;;4911814;29;20052;-83
2022/10/20 01:34:50;;;;;;;1999.90;999.90;;;9.60;99.90;;;;;;4876055;29;20064;-83
2022/10/20 01:37:29;;;;;;;1999.90;999.90;;;9.60;99.90;;;;;;4895543;29;20060;-83
2022/10/20 01:40:08;;;;;;;1999.90;999.90;;;9.50;99.90;;;;;;4897245;29;20104;-82
2022/10/20 01:42:36;;;;;;;1999.90;999.90;;;9.50;99.90;;;;;;4913927;29;20048;-82
2022/10/20 01:45:04;;;;;;;1999.90;999.90;;;10.60;99.90;;;;;;4915360;29;20497;-82
2022/10/20 01:47:32;;;;;;;1999.90;999.90;;;9.40;99.90;;;;;;4895838;29;20067;-83
2022/10/20 01:49:58;;;;;;;;;;;9.50;99.90;;;;;;4883438;29;20058;-83
2022/10/20 01:52:26;;;;;;;1999.90;999.90;;;10.40;99.90;;;;;;4905234;29;19923;-82
2022/10/20 01:54:51;;;;;;;1999.90;999.90;;;9.30;99.90;;;;;;4904776;29;20060;-82
2022/10/20 01:57:29;;;;;;;1999.90;999.90;;;9.80;99.90;;;;;;4916535;29;20054;-82
2022/10/20 02:00:09;;;;;;;1999.90;999.90;;;9.30;99.90;;;;;;4910691;29;20581;-82
2022/10/20 02:02:53;;;;;;;1999.90;999.90;;;9.20;99.90;;;;;;4916233;29;20496;-82
2022/10/20 02:05:25;;;;;;;1999.90;999.90;;;9.20;99.90;;;;;;4910880;29;20089;-86
2022/10/20 02:08:03;;;;;;;1999.90;999.90;;;9.20;99.90;;;;;;4912497;29;20079;-82
2022/10/20 02:10:39;;;;;;;1999.90;999.90;;;9.20;99.90;;;;;;4888968;29;20090;-82
2022/10/20 02:13:06;;;;;;;1999.90;999.90;;;9.20;99.90;;;;;;4914622;29;20048;-82
2022/10/20 02:15:37;;;;;;;1999.90;999.90;;;9.20;99.90;;;;;;4916680;29;20409;-84
2022/10/20 02:18:06;;;;;;;1999.90;999.90;;;9.20;99.90;;;;;;4916063;29;20051;-81
2022/10/20 02:20:32;;;;;;;1999.90;999.90;;;9.30;1.00;;;;;;4884898;29;20052;-81
2022/10/20 02:22:59;;;;;;;1999.90;999.90;;;9.40;1.00;;;;;;4917535;29;20105;-80
2022/10/20 02:25:27;;;;;;;1999.90;999.90;;;9.40;1.00;;;;;;4908952;29;20055;-81
2022/10/20 02:27:54;;;;;;;1999.90;999.90;;;9.40;9.60;;;;;;4898239;29;20184;-81
2022/10/20 02:30:20;;;;;;;1999.90;999.90;;;9.40;44.40;;;;;;4910114;29;20119;-83
2022/10/20 02:32:50;;;;;;;1999.90;999.90;;;9.50;36.60;;;;;;4916119;29;20522;-85
2022/10/20 02:35:22;;;;;;;1999.90;999.90;;;9.50;47.40;;;;;;4907612;29;20394;-81
2022/10/20 02:37:48;;;;;;;1999.90;999.90;;;10.20;99.90;;;;;;4917582;29;20048;-83
2022/10/20 02:40:14;;;;;;;1999.90;999.90;;;9.50;77.60;;;;;;4892417;29;20044;-82
2022/10/20 02:42:42;;;;;;;1999.90;999.90;;;9.70;75.50;;;;;;4891803;29;20056;-81
2022/10/20 02:45:08;;;;;;;1999.90;999.90;;;9.50;91.80;;;;;;4906484;29;20055;-82
2022/10/20 02:47:33;;;;;;;1999.90;999.90;;;9.50;97.50;;;;;;4914984;29;20048;-82
2022/10/20 02:50:00;;;;;;;1999.90;999.90;;;10.00;97.20;;;;;;4901695;29;20040;-82
2022/10/20 02:52:26;;;;;;;1999.90;999.90;;;9.50;99.90;;;;;;4901098;29;20060;-82
2022/10/20 02:54:51;;;;;;;1999.90;999.90;;;10.00;99.90;;;;;;4897365;29;20056;-82
2022/10/20 02:57:17;;;;;;;1999.90;999.90;;;10.40;99.90;;;;;;4915283;29;20044;-83
2022/10/20 02:59:43;;;;;;;1999.90;999.90;;;9.50;99.90;;;;;;4896222;29;20412;-81
2022/10/20 03:02:08;;;;;;;1999.90;999.90;;;10.30;99.90;;;;;;4891891;29;20285;-82
2022/10/20 03:04:34;;;;;;;1999.90;999.90;;;11.10;99.90;;;;;;4913351;29;20107;-82
2022/10/20 03:07:00;;;;;;;1999.90;999.90;;;10.80;99.90;;;;;;4912438;29;20044;-81
2022/10/20 03:09:25;;;;;;;1999.90;999.90;;;9.50;99.90;;;;;;4910223;29;20052;-81
2022/10/20 03:11:51;;;;;;;1999.90;999.90;;;11.30;99.90;;;;;;4889598;29;20117;-85
2022/10/20 03:14:17;;;;;;;1999.90;999.90;;;9.70;99.90;;;;;;4896301;29;20051;-81
2022/10/20 03:16:42;;;;;;;1999.90;999.90;;;10.90;93.40;;;;;;4907485;29;20072;-82
2022/10/20 03:19:08;;;;;;;1999.90;999.90;;;9.50;99.90;;;;;;4886811;29;20056;-83
2022/10/20 03:21:34;;;;;;;1999.90;999.90;;;9.50;95.90;;;;;;4911623;29;20059;-83
2022/10/20 03:23:59;;;;;;;1999.90;999.90;;;9.60;99.90;;;;;;4909899;29;20139;-81
2022/10/20 03:26:25;;;;;;;1999.90;999.90;;;10.20;99.90;;;;;;4913358;29;20044;-82
2022/10/20 03:28:51;;;;;;;1999.90;999.90;;;9.60;99.90;;;;;;4915446;29;20079;-81
2022/10/20 03:31:17;;;;;;;1999.90;999.90;;;9.60;99.90;;;;;;4910470;29;20051;-82
2022/10/20 03:33:42;;;;;;;1999.90;999.90;;;9.60;99.90;;;;;;4909334;29;20044;-86
2022/10/20 03:36:08;;;;;;;1999.90;999.90;;;10.60;99.90;;;;;;4910739;29;20048;-81
2022/10/20 03:38:34;;;;;;;1999.90;999.90;;;9.60;99.90;;;;;;4907690;29;20040;-81
2022/10/20 03:41:00;;;;;;;1999.90;999.90;;;9.50;99.90;;;;;;4882605;29;20051;-80
2022/10/20 03:43:26;;;;;;;1999.90;999.90;;;10.00;99.90;;;;;;4877889;29;20111;-82
2022/10/20 03:46:04;;;;;;;1999.90;999.90;;;9.60;99.90;;;;;;4892300;29;20317;-84
2022/10/20 03:48:30;;;;;;;1999.90;999.90;;;9.70;99.90;;;;;;4890935;29;20052;-82
2022/10/20 03:50:56;;;;;;;1999.90;999.90;;;10.40;99.90;;;;;;4894548;29;20044;-82
2022/10/20 03:53:21;;;;;;;1999.90;999.90;;;9.70;99.90;;;;;;4879117;29;20052;-80
2022/10/20 03:55:47;;;;;;;1999.90;999.90;;;10.80;99.90;;;;;;4902035;29;20067;-81
2022/10/20 03:58:13;;;;;;;1999.90;999.90;;;9.70;99.90;;;;;;4907777;29;20123;-86
2022/10/20 04:00:38;;;;;;;1999.90;999.90;;;9.70;98.80;;;;;;4911988;29;20052;-81
2022/10/20 04:03:04;;;;;;;1999.90;999.90;;;9.70;99.90;;;;;;4912436;29;20552;-81
2022/10/20 04:05:30;;;;;;;1999.90;999.90;;;9.70;53.10;;;;;;4908436;29;20052;-83
2022/10/20 04:07:55;;;;;;;1999.90;999.90;;;9.70;15.30;;;;;;4886172;29;20097;-81
2022/10/20 04:10:21;;;;;;;1999.90;999.90;;;9.70;56.90;;;;;;4873315;29;20040;-82
2022/10/20 04:12:47;;;;;;;1999.90;999.90;;;9.90;24.90;;;;;;4893449;29;20557;-82
2022/10/20 04:15:13;;;;;;;1999.90;999.90;;;9.70;29.90;;;;;;4894568;29;20160;-82
2022/10/20 04:17:38;;;;;;;1999.90;999.90;;;9.70;36.00;;;;;;4916065;29;20052;-82
2022/10/20 04:20:05;;;;;;;1999.90;999.90;;;11.40;31.60;;;;;;4893386;29;20131;-82
2022/10/20 04:22:31;;;;;;;1999.90;999.90;;;9.70;42.60;;;;;;4915985;29;20059;-82
2022/10/20 04:24:57;;;;;;;1999.90;999.90;;;9.70;43.80;;;;;;4893816;29;20053;-83
2022/10/20 04:27:22;;;;;;;1999.90;999.90;;;9.70;4.40;;;;;;4909105;29;20076;-83
2022/10/20 04:29:48;;;;;;;1999.90;999.90;;;9.70;21.60;;;;;;4891790;29;20383;-83
2022/10/20 04:32:14;;;;;;;1999.90;999.90;;;9.70;1.00;;;;;;4915504;29;20161;-83
2022/10/20 04:34:39;;;;;;;1999.90;999.90;;;9.70;22.80;;;;;;4901915;29;20056;-82
2022/10/20 04:37:05;;;;;;;1999.90;999.90;;;9.70;1.00;;;;;;4892886;29;20410;-83
2022/10/20 04:39:31;;;;;;;1999.90;999.90;;;9.80;1.00;;;;;;4872847;29;21083;-82
2022/10/20 04:41:57;;;;;;;1999.90;999.90;;;9.70;5.70;;;;;;4909127;29;20576;-83
2022/10/20 04:44:22;;;;;;;1999.90;999.90;;;9.70;1.00;;;;;;4906231;29;20055;-83
2022/10/20 04:46:48;;;;;;;1999.90;999.90;;;9.70;9.40;;;;;;4915642;29;20040;-82
2022/10/20 04:49:14;;;;;;;1999.90;999.90;;;9.60;1.70;;;;;;4891377;29;20107;-83
2022/10/20 04:51:40;;;;;;;1999.90;999.90;;;10.30;33.90;;;;;;4913916;29;20047;-83
2022/10/20 04:54:05;;;;;;;1999.90;999.90;;;9.70;21.00;;;;;;4909221;29;20459;-84
2022/10/20 04:56:31;;;;;;;1999.90;999.90;;;9.70;9.70;;;;;;4915604;29;20056;-83
2022/10/20 04:58:57;;;;;;;1999.90;999.90;;;9.70;1.00;;;;;;4907304;29;20116;-83
2022/10/20 05:01:26;;;;;;;1999.90;999.90;;;9.70;5.50;;;;;;4876176;29;20095;-83
2022/10/20 05:03:52;;;;;;;1999.90;999.90;;;9.70;1.00;;;;;;4919659;29;20127;-82
2022/10/20 05:06:24;;;;;;;1999.90;999.90;;;10.00;1.00;;;;;;4917551;29;20048;-84
2022/10/20 05:08:52;;;;;;;1999.90;999.90;;;9.70;1.00;;;;;;4901570;29;20051;-84
2022/10/20 05:11:19;;;;;;;1999.90;999.90;;;10.00;1.00;;;;;;4912886;29;20051;-84
2022/10/20 05:13:45;;;;;;;1999.90;999.90;;;9.70;1.00;;;;;;4911591;29;20397;-83
2022/10/20 05:16:11;;;;;;;1999.90;999.90;;;10.80;1.00;;;;;;4884214;29;20083;-82
2022/10/20 05:18:38;;;;;;;1999.90;999.90;;;11.20;1.00;;;;;;4918544;29;20177;-83
2022/10/20 05:21:05;;;;;;;1999.90;999.90;;;9.70;1.00;;;;;;4914723;29;20045;-82
2022/10/20 05:23:31;;;;;;;1999.90;999.90;;;9.70;1.00;;;;;;4917539;29;20052;-83
2022/10/20 05:26:00;;;;;;;1999.90;999.90;;;10.20;5.70;;;;;;4903460;29;20060;-83
2022/10/20 05:28:26;;;;;;;1999.90;999.90;;;9.70;1.00;;;;;;4915256;29;20127;-82
2022/10/20 05:30:51;;;;;;;1999.90;999.90;;;9.70;38.90;;;;;;4912435;29;20175;-84
2022/10/20 05:33:17;;;;;;;1999.90;999.90;;;9.60;22.50;;;;;;4907778;29;20048;-85
2022/10/20 05:35:42;;;;;;;1999.90;999.90;;;9.70;39.20;;;;;;4914808;29;20398;-85
2022/10/20 05:38:08;;;;;;;1999.90;999.90;;;9.70;1.00;;;;;;4904057;29;20044;-85
2022/10/20 05:40:34;;;;;;;1999.90;999.90;;;9.70;1.00;;;;;;4895734;29;20052;-85
2022/10/20 05:42:59;;;;;;;1999.90;999.90;;;11.10;1.00;;;;;;4918162;29;20050;-84
2022/10/20 05:45:25;;;;;;;1999.90;999.90;;;9.70;1.00;;;;;;4890266;29;20048;-84
2022/10/20 05:47:51;;;;;;;1999.90;999.90;;;10.30;1.00;;;;;;4892003;29;20128;-84
2022/10/20 05:50:16;;;;;;;1999.90;999.90;;;9.70;1.00;;;;;;4909488;29;20103;-84
2022/10/20 05:52:42;;;;;;;1999.90;999.90;;;9.70;1.00;;;;;;4908726;29;20450;-84
2022/10/20 05:55:08;;;;;;;1999.90;999.90;;;10.40;1.00;;;;;;4884022;29;20054;-84
2022/10/20 05:57:34;;;;;;;1999.90;999.90;;;9.70;1.00;;;;;;4911608;29;20060;-84
2022/10/20 06:00:00;;;;;;;1999.90;999.90;;;10.50;1.00;;;;;;4865180;29;20048;-85
2022/10/20 06:02:25;;;;;;;1999.90;999.90;;;9.70;1.00;;;;;;4902664;29;20051;-86
2022/10/20 06:04:51;;;;;;;1999.90;999.90;;;9.80;1.00;;;;;;4887133;29;20056;-85
2022/10/20 06:07:16;;;;;;;1999.90;999.90;;;9.80;1.00;;;;;;4904101;29;20087;-85
2022/10/20 06:09:42;;;;;;;1999.90;999.90;;;9.80;1.00;;;;;;4897109;29;20060;-85
2022/10/20 06:12:08;;;;;;;1999.90;999.90;;;9.90;1.00;;;;;;4902043;29;20056;-84
2022/10/20 06:14:33;;;;;;;1999.90;999.90;;;9.80;1.00;;;;;;4893811;29;20056;-84
2022/10/20 06:16:59;;;;;;;1999.90;999.90;;;9.80;1.00;;;;;;4874395;29;20056;-85
2022/10/20 06:19:25;;;;;;;1999.90;999.90;;;10.50;1.00;;;;;;4893121;29;20048;-86
2022/10/20 06:21:51;;;;;;;1999.90;999.90;;;9.80;1.00;;;;;;4896618;29;20443;-84
2022/10/20 06:24:18;;;;;;;1999.90;999.90;;;9.70;1.00;;;;;;4898405;29;20103;-84
2022/10/20 06:26:44;;;;;;;1999.90;999.90;;;9.70;1.00;;;;;;4896425;29;20115;-84
2022/10/20 06:29:12;;;;;;;1999.90;999.90;;;9.70;99.90;;;;;;4885702;29;20084;-85
2022/10/20 06:31:44;;;;;;;1999.90;999.90;;;9.80;1.00;;;;;;4895036;29;20052;-84
2022/10/20 06:34:13;;;;;;;1999.90;999.90;;;10.60;1.00;;;;;;4902936;29;20048;-85
2022/10/20 06:36:40;;;;;;;1999.90;999.90;;;10.20;1.00;;;;;;4886827;29;20060;-84
2022/10/20 06:39:09;;;;;;;1999.90;999.90;;;10.30;1.00;;;;;;4897559;29;20044;-84
2022/10/20 06:41:35;;;;;;;1999.90;999.90;;;9.90;1.00;;;;;;4885794;29;20044;-84
2022/10/20 06:44:01;;;;;;;1999.90;999.90;;;9.90;1.00;;;;;;4886659;29;20114;-85
2022/10/20 06:46:29;;;;;;;1999.90;999.90;;;10.00;1.00;;;;;;4890098;29;20053;-85
2022/10/20 06:48:56;;;;;;;1999.90;999.90;;;10.10;1.00;;;;;;4900658;29;20448;-85
2022/10/20 06:51:21;;;;;;;1999.90;999.90;;;11.30;1.00;;;;;;4916036;29;20044;-86
2022/10/20 06:53:49;;;;;;;1999.90;999.90;;;10.10;99.90;;;;;;4886599;29;20108;-87
2022/10/20 06:56:21;;;;;;;1999.90;999.90;;;10.20;99.90;;;;;;4906574;29;20053;-85
2022/10/20 06:58:49;;;;;;;1999.90;999.90;;;10.30;99.90;;;;;;4891187;29;20379;-86
2022/10/20 07:01:36;;;;;;;1999.90;999.90;;;10.70;99.90;;;;;;4898765;29;20394;-85
2022/10/20 07:04:05;;;;;;;1999.90;999.90;;;10.60;99.90;;;;;;4888688;29;20056;-85
2022/10/20 07:06:33;;;;;;;1999.90;999.90;;;10.40;99.90;;;;;;4914564;29;20568;-85
2022/10/20 07:08:59;;;;;;;1999.90;999.90;;;10.40;99.90;;;;;;4896540;29;20517;-85
2022/10/20 07:11:28;;;;;;;1999.90;999.90;;;10.50;99.90;;;;;;4865493;29;20108;-85
2022/10/20 07:13:54;;;;;;;1999.90;999.90;;;10.70;99.90;;;;;;4882854;29;20059;-84
2022/10/20 07:16:23;;;;;;;1999.90;999.90;;;10.70;99.20;;;;;;4883122;29;20049;-85
2022/10/20 07:18:49;;;;;;;1999.90;999.90;;;11.70;17.30;;;;;;4883402;29;20049;-83
2022/10/20 07:21:23;;;;;;;1999.90;999.90;;;10.80;12.60;;;;;;4884996;29;20055;-85
2022/10/20 07:23:50;;;;;;;1999.90;999.90;;;10.80;1.00;;;;;;4905947;29;20051;-84
2022/10/20 07:26:30;;;;;;;1999.90;999.90;;;10.90;99.90;;;;;;4897329;29;20049;-84
2022/10/20 07:28:58;;;;;;;1999.90;999.90;;;10.90;99.90;;;;;;4900649;29;20067;-84
2022/10/20 07:31:29;;;;;;;1999.90;999.90;;;11.00;99.90;;;;;;4905415;29;20059;-84
2022/10/20 07:33:57;;;;;;;1999.90;999.90;;;11.00;99.90;;;;;;4895954;29;20111;-84
2022/10/20 07:36:28;;;;;;;1999.90;999.90;;;10.80;99.90;;;;;;4890366;29;20063;-83
2022/10/20 07:38:56;;;;;;;1999.90;999.90;;;11.10;99.90;;;;;;4878643;29;20118;-84
2022/10/20 07:41:22;;;;;;;1999.90;999.90;;;11.10;99.90;;;;;;4884160;29;20060;-86
2022/10/20 07:43:48;;;;;;;1999.90;999.90;;;11.50;99.90;;;;;;4878517;29;20048;-83
2022/10/20 07:46:15;;;;;;;1999.90;999.90;;;11.10;99.90;;;;;;4885470;29;20165;-83
2022/10/20 07:48:41;;;;;;;1999.90;999.90;;;11.20;99.90;;;;;;4898780;29;20047;-84
2022/10/20 07:51:23;;;;;;;1999.90;999.90;;;11.30;99.90;;;;;;4910899;29;20053;-84
2022/10/20 07:53:50;;;;;;;1999.90;999.90;;;11.30;99.90;;;;;;4897441;29;20058;-84
2022/10/20 07:56:16;;;;;;;1999.90;999.90;;;11.80;99.90;;;;;;4869418;29;20154;-85
2022/10/20 07:58:42;;;;;;;1999.90;999.90;;;11.40;99.90;;;;;;4885475;29;20092;-84
2022/10/20 08:01:08;;;;;;;1999.90;999.90;;;11.50;99.90;;;;;;4902965;29;20058;-86
2022/10/20 08:03:35;;;;;;;1999.90;999.90;;;11.60;99.90;;;;;;4865994;29;20091;-87
2022/10/20 08:06:01;;;;;;;1999.90;999.90;;;11.70;99.90;;;;;;4899655;29;20446;-85
2022/10/20 08:08:27;;;;;;;1999.90;999.90;;;11.90;99.90;;;;;;4876977;29;20061;-87
2022/10/20 08:10:53;;;;;;;1999.90;999.90;;;11.80;99.90;;;;;;4896277;29;20516;-84
2022/10/20 08:13:18;;;;;;;1999.90;999.90;;;11.90;99.90;;;;;;4895260;29;20074;-84
2022/10/20 08:15:44;;;;;;;1999.90;999.90;;;12.00;99.90;;;;;;4906647;29;20817;-83
2022/10/20 08:18:10;;;;;;;1999.90;999.90;;;12.20;99.90;;;;;;4890118;29;20462;-84
2022/10/20 08:20:36;;;;;;;1999.90;999.90;;;12.00;99.90;;;;;;4895739;29;20060;-84
2022/10/20 08:23:01;;;;;;;1999.90;999.90;;;12.10;99.90;;;;;;4906479;29;20111;-84
2022/10/20 08:25:30;;;;;;;1999.90;999.90;;;12.20;99.90;;;;;;4891336;29;20059;-84
2022/10/20 08:27:56;;;;;;;1999.90;999.90;;;12.80;99.90;;;;;;4864092;29;20052;-84
2022/10/20 08:30:27;;;;;;;1999.90;999.90;;;12.40;99.90;;;;;;4891258;29;20055;-84
2022/10/20 08:32:53;;;;;;;1999.90;999.90;;;12.50;99.90;;;;;;4908821;29;20056;-85
2022/10/20 08:35:20;;;;;;;1999.90;999.90;;;12.50;93.60;;;;;;4911515;29;20055;-84
2022/10/20 08:37:46;;;;;;;1999.90;999.90;;;12.60;77.60;;;;;;4894407;29;20506;-84
2022/10/20 08:40:18;;;;;;;1999.90;999.90;;;12.70;81.40;;;;;;4903906;29;20079;-85
2022/10/20 08:42:44;;;;;;;1999.90;999.90;;;12.80;86.30;;;;;;4878359;29;20060;-85
2022/10/20 08:45:17;;;;;;;1999.90;999.90;;;12.90;49.00;;;;;;4889645;29;20044;-85
2022/10/20 08:47:46;;;;;;;1999.90;999.90;;;13.00;62.40;;;;;;4892061;29;20049;-85
2022/10/20 08:50:15;;;;;;;1999.90;999.90;;;13.00;24.80;;;;;;4897690;29;20052;-85
2022/10/20 08:52:43;;;;;;;1999.90;999.90;;;13.10;1.00;;;;;;4861382;29;20426;-83
2022/10/20 08:55:24;;;;;;;1999.90;999.90;;;13.20;7.80;;;;;;4904979;29;20500;-85
2022/10/20 08:57:49;;;;;;;1999.90;999.90;;;13.30;2.40;;;;;;4884230;29;20572;-83
2022/10/20 09:00:23;;;;;;;1999.90;999.90;;;13.60;4.80;;;;;;4884826;29;20048;-85
2022/10/20 09:02:50;;;;;;;1999.90;999.90;;;13.90;1.00;;;;;;4890722;29;20393;-87
2022/10/20 09:05:30;;;;;;;1999.90;999.90;;;14.50;1.00;;;;;;4863564;29;20057;-84
2022/10/20 09:07:56;;;;;;;1999.90;999.90;;;15.20;1.00;;;;;;4882212;29;20036;-82
2022/10/20 09:10:35;;;;;;;1999.90;999.90;;;15.50;1.00;;;;;;4886741;29;20044;-85
2022/10/20 09:13:02;;;;;;;1999.90;999.90;;;15.70;1.00;;;;;;4894893;29;20052;-83
2022/10/20 09:15:28;;;;;;;1999.90;999.90;;;15.70;1.00;;;;;;4893469;29;20040;-84
2022/10/20 09:18:08;;;;;;;1999.90;999.90;;;15.70;1.00;;;;;;4901626;29;20055;-85
2022/10/20 09:21:03;;;;;;;1999.90;999.90;;;15.60;1.00;;;;;;4880553;29;20080;-83
2022/10/20 09:23:38;;;;;;;1999.90;999.90;;;15.20;99.90;;;;;;4877070;29;20052;-88
2022/10/20 09:26:08;;;;;;;1999.90;999.90;;;14.90;1.00;;;;;;4903300;29;20135;-85
2022/10/20 09:28:34;;;;;;;1999.90;999.90;;;14.80;1.00;;;;;;4887388;29;20055;-85
2022/10/20 09:31:00;;;;;;;1999.90;999.90;;;14.80;1.00;;;;;;4888086;29;20048;-85
2022/10/20 09:33:30;;;;;;;1999.90;999.90;;;14.80;1.00;;;;;;4900730;29;20080;-85
2022/10/20 09:36:04;;;;;;;1999.90;999.90;;;14.80;1.00;;;;;;4909545;29;20052;-86
2022/10/20 09:38:34;;;;;;;1999.90;999.90;;;14.90;1.00;;;;;;4867642;29;20088;-85
2022/10/20 09:41:22;;;;;;;1999.90;999.90;;;14.80;99.90;;;;;;4890347;29;20385;-86
2022/10/20 09:43:53;;;;;;;1999.90;999.90;;;14.70;1.00;;;;;;4900370;29;20048;-85
2022/10/20 09:46:33;;;;;;;1999.90;999.90;;;14.70;1.00;;;;;;4902981;29;20063;-85
2022/10/20 09:48:59;;;;;;;1999.90;999.90;;;14.70;1.00;;;;;;4901517;29;20048;-87
2022/10/20 09:51:27;;;;;;;1999.90;999.90;;;14.70;1.00;;;;;;4905449;29;20059;-85
2022/10/20 09:53:54;;;;;;;;;;;14.80;1.00;;;;;;4901861;29;20060;-86
2022/10/20 09:56:41;;;;;;;1999.90;999.90;;;14.80;1.00;;;;;;4885891;29;19973;-85
2022/10/20 09:59:33;;;;;;;1999.90;999.90;;;14.90;1.00;;;;;;4909353;29;20100;-84
2022/10/20 10:02:02;;;;;;;1999.90;999.90;;;14.90;1.00;;;;;;4888734;29;20134;-86
2022/10/20 10:04:34;;;;;;;1999.90;999.90;;;14.90;1.00;;;;;;4898751;29;20458;-86
2022/10/20 10:07:00;;;;;;;1999.90;999.90;;;15.10;1.00;;;;;;4907487;29;20091;-85
2022/10/20 10:09:34;;;;;;;1999.90;999.90;;;15.20;1.00;;;;;;4914342;29;20520;-86
2022/10/20 10:12:09;;;;;;;1999.90;999.90;;;15.40;1.00;;;;;;4878786;29;20055;-85
2022/10/20 10:14:35;;;;;;;1999.90;999.90;;;15.50;1.00;;;;;;4869269;29;20044;-85
2022/10/20 10:17:01;;;;;;;1999.90;999.90;;;15.50;1.00;;;;;;4882750;29;20158;-85
2022/10/20 10:19:32;;;;;;;1999.90;999.90;;;15.40;99.90;;;;;;4881474;29;20052;-88
2022/10/20 10:22:00;;;;;;;1999.90;999.90;;;15.50;99.90;;;;;;4864361;29;20048;-85
2022/10/20 10:24:40;;;;;;;1999.90;999.90;;;15.30;99.90;;;;;;4901808;29;20056;-87
2022/10/20 10:27:25;;;;;;;1999.90;999.90;;;15.40;99.90;;;;;;4873386;29;20075;-84
2022/10/20 10:29:52;;;;;;;1999.90;999.90;;;15.50;99.90;;;;;;4879887;29;20061;-86
2022/10/20 10:32:26;;;;;;;1999.90;999.90;;;15.70;99.90;;;;;;4894964;29;20044;-85
2022/10/20 10:35:14;;;;;;;1999.90;999.90;;;15.80;99.90;;;;;;4878346;29;20131;-87
2022/10/20 10:37:42;;;;;;;1999.90;999.90;;;15.80;99.90;;;;;;4879291;29;20132;-85
2022/10/20 10:40:30;;;;;;;1999.90;999.90;;;15.80;99.90;;;;;;4896452;29;20410;-85
2022/10/20 10:43:02;;;;;;;1999.90;999.90;;;15.80;99.90;;;;;;4897131;29;20052;-85
2022/10/20 10:46:04;;;;;;;1999.90;811.58;;;15.80;99.90;;;;;;4898975;29;20048;-85
2022/10/20 10:48:45;;;;;;;1999.90;999.90;;;15.80;99.90;;;;;;4889850;29;20041;-86
2022/10/20 10:51:26;;;;;;;1999.90;999.90;;;15.90;99.90;;;;;;4885411;29;20056;-85
2022/10/20 10:54:01;;;;;;;1999.90;999.90;;;15.20;99.90;;;;;;4903479;29;20576;-85
2022/10/20 10:56:39;;;;;;;1999.90;999.90;;;15.90;99.90;;;;;;4889305;29;20055;-86
2022/10/20 10:59:18;;;;;;;1999.90;999.90;;;15.90;99.90;;;;;;4890647;29;20179;-84
2022/10/20 11:01:56;;;;;;;1999.90;999.90;;;15.90;99.90;;;;;;4901919;29;20485;-86
2022/10/20 11:04:43;;;;;;;1999.90;999.90;;;16.00;99.90;;;;;;4883300;29;20052;-86
2022/10/20 11:07:15;;;;;;;1999.90;999.90;;;15.90;99.90;;;;;;4900266;29;20052;-87
2022/10/20 11:09:55;;;;;;;1999.90;999.90;;;15.80;99.90;;;;;;4876618;29;20071;-87
2022/10/20 11:12:33;;;;;;;1999.90;999.90;;;16.00;99.90;;;;;;4907917;29;20052;-88
2022/10/20 11:15:13;;;;;;;1999.90;999.90;;;16.10;99.90;;;;;;4892638;29;20041;-85
2022/10/20 11:18:03;;;;;;;1999.90;999.90;;;15.90;99.90;;;;;;4892799;29;20040;-88
2022/10/20 11:20:44;;;;;;;1999.90;999.90;;;16.00;99.90;;;;;;4898375;29;20056;-87
2022/10/20 11:23:20;;;;;;;1999.90;999.90;;;16.10;99.90;;;;;;4862307;29;20085;-87
2022/10/20 11:26:09;;;;;;;1999.90;999.90;;;16.10;99.90;;;;;;4889157;29;20048;-86
2022/10/20 11:28:43;;;;;;;1999.90;999.90;;;16.10;99.90;;;;;;4863408;29;20797;-84
2022/10/20 11:31:34;;;;;;;1999.90;999.90;;;16.10;99.90;;;;;;4895935;29;20397;-87
2022/10/20 11:34:08;;;;;;;1999.90;999.90;;;16.10;99.90;;;;;;4893891;29;20505;-85
2022/10/20 11:36:51;;;;;;;1999.90;999.90;;;16.00;99.90;;;;;;4912157;29;20044;-84
2022/10/20 11:39:36;;;;;;;1999.90;999.90;;;15.90;99.90;;;;;;4892293;29;20055;-88
2022/10/20 11:42:38;;;;;;;1999.90;999.90;;;15.80;99.90;;;;;;4914428;29;20055;-87
2022/10/20 11:45:23;;;;;;;1999.90;999.90;;;15.90;99.90;;;;;;4891273;29;20612;-86
2022/10/20 11:47:55;;;;;;;1999.90;999.90;;;16.00;99.90;;;;;;4913213;29;20048;-88
2022/10/20 11:50:21;;;;;;;1999.90;999.90;;;16.10;1.00;;;;;;4904919;29;20098;-86
2022/10/20 11:53:38;;;;;;;1999.90;999.90;;;16.10;1.00;;;;;;4914142;29;20052;-86
2022/10/20 11:56:39;;;;;;;1999.90;999.90;;;16.00;99.90;;;;;;4859167;29;20079;-87
2022/10/20 11:59:14;;;;;;;1999.90;999.90;;;15.90;99.90;;;;;;4893159;29;20277;-87
2022/10/20 12:02:09;;;;;;;1999.90;999.90;;;16.00;1.00;;;;;;4901671;29;20052;-87
2022/10/20 12:04:52;;;;;;;1999.90;999.90;;;15.90;1.00;;;;;;4876295;29;20052;-86
2022/10/20 12:07:30;;;;;;;1999.90;999.90;;;16.00;1.00;;;;;;4908325;29;20044;-86
2022/10/20 12:10:05;;;;;;;1999.90;999.90;;;15.90;1.00;;;;;;4896587;29;20041;-85
2022/10/20 12:12:55;;;;;;;1999.90;999.90;;;15.80;1.00;;;;;;4901168;29;20497;-88
2022/10/20 12:15:23;;;;;;;1999.90;999.90;;;15.80;1.00;;;;;;4898985;29;20063;-85
2022/10/20 12:17:52;;;;;;;1999.90;999.90;;;15.80;1.00;;;;;;4882648;29;20052;-86
2022/10/20 12:20:20;;;;;;;1999.90;999.90;;;15.80;1.00;;;;;;4889518;29;20090;-85
2022/10/20 12:22:54;;;;;;;1999.90;999.90;;;15.80;1.00;;;;;;4909748;29;20135;-84